sensor_id;sensor_type;location;lat;lon;timestamp;P1;durP1;ratioP1;P2;durP2;ratioP2
12603;SDS011;6367;52.508;13.284;2024-01-16T00:00:56;5.53;;;2.07;;
12603;SDS011;6367;52.508;13.284;2024-01-16T00:03:21;4.93;;;2.30;;
12603;SDS011;6367;52.508;13.284;2024-01-16T00:05:47;4.70;;;2.10;;
12603;SDS011;6367;52.508;13.284;2024-01-16T00:08:13;3.27;;;2.10;;
12603;SDS011;6367;52.508;13.284;2024-01-16T00:10:39;5.20;;;2.20;;
12603;SDS011;6367;52.508;13.284;2024-01-16T00:13:05;2.80;;;1.60;;
12603;SDS011;6367;52.508;13.284;2024-01-16T00:15:31;4.40;;;2.20;;
12603;SDS011;6367;52.508;13.284;2024-01-16T00:17:57;5.70;;;2.10;;
12603;SDS011;6367;52.508;13.284;2024-01-16T00:20:22;5.50;;;1.60;;
12603;SDS011;6367;52.508;13.284;2024-01-16T00:22:50;7.53;;;2.10;;
12603;SDS011;6367;52.508;13.284;2024-01-16T00:25:16;5.57;;;2.00;;
12603;SDS011;6367;52.508;13.284;2024-01-16T00:27:44;3.70;;;2.13;;
12603;SDS011;6367;52.508;13.284;2024-01-16T00:30:11;6.20;;;1.90;;
12603;SDS011;6367;52.508;13.284;2024-01-16T00:32:37;8.67;;;1.90;;
12603;SDS011;6367;52.508;13.284;2024-01-16T00:35:04;5.37;;;1.70;;
12603;SDS011;6367;52.508;13.284;2024-01-16T00:37:30;1.73;;;1.43;;
12603;SDS011;6367;52.508;13.284;2024-01-16T00:39:55;3.50;;;1.47;;
12603;SDS011;6367;52.508;13.284;2024-01-16T00:42:21;2.20;;;1.40;;
12603;SDS011;6367;52.508;13.284;2024-01-16T00:44:47;4.77;;;1.63;;
12603;SDS011;6367;52.508;13.284;2024-01-16T00:47:13;1.97;;;1.43;;
12603;SDS011;6367;52.508;13.284;2024-01-16T00:49:38;2.23;;;1.50;;
12603;SDS011;6367;52.508;13.284;2024-01-16T00:52:04;2.10;;;1.87;;
12603;SDS011;6367;52.508;13.284;2024-01-16T00:54:30;2.30;;;1.90;;
12603;SDS011;6367;52.508;13.284;2024-01-16T00:56:55;3.40;;;1.40;;
12603;SDS011;6367;52.508;13.284;2024-01-16T00:59:25;2.83;;;1.50;;
12603;SDS011;6367;52.508;13.284;2024-01-16T01:01:51;2.20;;;1.50;;
12603;SDS011;6367;52.508;13.284;2024-01-16T01:04:16;3.43;;;1.67;;
12603;SDS011;6367;52.508;13.284;2024-01-16T01:06:42;7.50;;;2.83;;
12603;SDS011;6367;52.508;13.284;2024-01-16T01:09:08;2.10;;;1.50;;
12603;SDS011;6367;52.508;13.284;2024-01-16T01:11:36;2.10;;;1.37;;
12603;SDS011;6367;52.508;13.284;2024-01-16T01:14:03;2.30;;;1.10;;
12603;SDS011;6367;52.508;13.284;2024-01-16T01:16:29;2.30;;;1.63;;
12603;SDS011;6367;52.508;13.284;2024-01-16T01:18:54;1.83;;;1.13;;
12603;SDS011;6367;52.508;13.284;2024-01-16T01:21:20;3.27;;;1.27;;
12603;SDS011;6367;52.508;13.284;2024-01-16T01:23:46;1.47;;;1.30;;
12603;SDS011;6367;52.508;13.284;2024-01-16T01:26:11;2.17;;;1.00;;
12603;SDS011;6367;52.508;13.284;2024-01-16T01:28:40;1.20;;;1.10;;
12603;SDS011;6367;52.508;13.284;2024-01-16T01:31:10;1.00;;;0.90;;
12603;SDS011;6367;52.508;13.284;2024-01-16T01:33:36;3.80;;;1.50;;
12603;SDS011;6367;52.508;13.284;2024-01-16T01:36:02;2.00;;;0.97;;
12603;SDS011;6367;52.508;13.284;2024-01-16T01:38:28;1.00;;;0.80;;
12603;SDS011;6367;52.508;13.284;2024-01-16T01:40:53;4.13;;;1.03;;
12603;SDS011;6367;52.508;13.284;2024-01-16T01:45:47;2.07;;;1.10;;
12603;SDS011;6367;52.508;13.284;2024-01-16T01:48:40;5.00;;;1.40;;
12603;SDS011;6367;52.508;13.284;2024-01-16T01:51:09;2.43;;;1.20;;
12603;SDS011;6367;52.508;13.284;2024-01-16T01:53:36;1.00;;;0.90;;
12603;SDS011;6367;52.508;13.284;2024-01-16T01:56:04;3.47;;;1.20;;
12603;SDS011;6367;52.508;13.284;2024-01-16T01:58:33;2.33;;;1.10;;
12603;SDS011;6367;52.508;13.284;2024-01-16T02:01:00;3.43;;;1.17;;
12603;SDS011;6367;52.508;13.284;2024-01-16T02:03:26;1.17;;;0.90;;
12603;SDS011;6367;52.508;13.284;2024-01-16T02:05:55;1.80;;;1.10;;
12603;SDS011;6367;52.508;13.284;2024-01-16T02:08:21;3.47;;;1.00;;
12603;SDS011;6367;52.508;13.284;2024-01-16T02:10:47;2.10;;;1.30;;
12603;SDS011;6367;52.508;13.284;2024-01-16T02:13:15;1.37;;;1.00;;
12603;SDS011;6367;52.508;13.284;2024-01-16T02:15:43;3.77;;;1.10;;
12603;SDS011;6367;52.508;13.284;2024-01-16T02:18:09;3.33;;;1.50;;
12603;SDS011;6367;52.508;13.284;2024-01-16T02:20:35;3.20;;;1.50;;
12603;SDS011;6367;52.508;13.284;2024-01-16T02:23:02;3.67;;;1.20;;
12603;SDS011;6367;52.508;13.284;2024-01-16T02:25:29;1.70;;;1.20;;
12603;SDS011;6367;52.508;13.284;2024-01-16T02:27:55;2.07;;;1.20;;
12603;SDS011;6367;52.508;13.284;2024-01-16T02:30:21;2.27;;;1.60;;
12603;SDS011;6367;52.508;13.284;2024-01-16T02:32:46;2.77;;;1.30;;
12603;SDS011;6367;52.508;13.284;2024-01-16T02:35:12;1.70;;;1.30;;
12603;SDS011;6367;52.508;13.284;2024-01-16T02:37:38;3.20;;;1.30;;
12603;SDS011;6367;52.508;13.284;2024-01-16T02:40:04;2.73;;;1.30;;
12603;SDS011;6367;52.508;13.284;2024-01-16T02:42:32;2.27;;;1.20;;
12603;SDS011;6367;52.508;13.284;2024-01-16T02:44:58;3.17;;;1.30;;
12603;SDS011;6367;52.508;13.284;2024-01-16T02:47:23;1.80;;;1.40;;
12603;SDS011;6367;52.508;13.284;2024-01-16T02:49:49;2.30;;;1.47;;
12603;SDS011;6367;52.508;13.284;2024-01-16T02:52:15;3.93;;;1.70;;
12603;SDS011;6367;52.508;13.284;2024-01-16T02:54:41;5.20;;;2.07;;
12603;SDS011;6367;52.508;13.284;2024-01-16T02:57:06;3.40;;;1.60;;
12603;SDS011;6367;52.508;13.284;2024-01-16T02:59:32;4.13;;;1.60;;
12603;SDS011;6367;52.508;13.284;2024-01-16T03:01:58;2.40;;;1.73;;
12603;SDS011;6367;52.508;13.284;2024-01-16T03:04:23;4.03;;;1.87;;
12603;SDS011;6367;52.508;13.284;2024-01-16T03:06:49;2.30;;;1.33;;
12603;SDS011;6367;52.508;13.284;2024-01-16T03:09:15;2.60;;;1.80;;
12603;SDS011;6367;52.508;13.284;2024-01-16T03:11:41;1.97;;;1.50;;
12603;SDS011;6367;52.508;13.284;2024-01-16T03:14:06;7.50;;;2.03;;
12603;SDS011;6367;52.508;13.284;2024-01-16T03:16:32;3.03;;;1.40;;
12603;SDS011;6367;52.508;13.284;2024-01-16T03:18:58;2.30;;;1.80;;
12603;SDS011;6367;52.508;13.284;2024-01-16T03:21:23;3.40;;;1.50;;
12603;SDS011;6367;52.508;13.284;2024-01-16T03:23:49;4.20;;;1.60;;
12603;SDS011;6367;52.508;13.284;2024-01-16T03:26:15;1.63;;;1.53;;
12603;SDS011;6367;52.508;13.284;2024-01-16T03:28:41;3.13;;;1.90;;
12603;SDS011;6367;52.508;13.284;2024-01-16T03:31:07;2.60;;;1.40;;
12603;SDS011;6367;52.508;13.284;2024-01-16T03:33:33;3.40;;;1.90;;
12603;SDS011;6367;52.508;13.284;2024-01-16T03:36:06;2.60;;;1.80;;
12603;SDS011;6367;52.508;13.284;2024-01-16T03:38:34;2.40;;;1.37;;
12603;SDS011;6367;52.508;13.284;2024-01-16T03:41:01;3.57;;;1.93;;
12603;SDS011;6367;52.508;13.284;2024-01-16T03:43:28;4.53;;;1.87;;
12603;SDS011;6367;52.508;13.284;2024-01-16T03:45:56;2.73;;;1.83;;
12603;SDS011;6367;52.508;13.284;2024-01-16T03:48:22;2.73;;;1.80;;
12603;SDS011;6367;52.508;13.284;2024-01-16T03:50:48;3.90;;;1.83;;
12603;SDS011;6367;52.508;13.284;2024-01-16T03:53:13;3.43;;;1.87;;
12603;SDS011;6367;52.508;13.284;2024-01-16T03:55:39;2.97;;;2.00;;
12603;SDS011;6367;52.508;13.284;2024-01-16T03:58:05;3.80;;;2.33;;
12603;SDS011;6367;52.508;13.284;2024-01-16T04:00:31;4.33;;;2.50;;
12603;SDS011;6367;52.508;13.284;2024-01-16T04:02:57;3.73;;;2.17;;
12603;SDS011;6367;52.508;13.284;2024-01-16T04:05:23;5.80;;;2.13;;
12603;SDS011;6367;52.508;13.284;2024-01-16T04:07:48;3.90;;;2.10;;
12603;SDS011;6367;52.508;13.284;2024-01-16T04:10:14;3.00;;;2.10;;
12603;SDS011;6367;52.508;13.284;2024-01-16T04:12:40;4.10;;;2.10;;
12603;SDS011;6367;52.508;13.284;2024-01-16T04:15:06;5.83;;;2.03;;
12603;SDS011;6367;52.508;13.284;2024-01-16T04:17:32;2.40;;;1.70;;
12603;SDS011;6367;52.508;13.284;2024-01-16T04:19:57;2.93;;;1.73;;
12603;SDS011;6367;52.508;13.284;2024-01-16T04:22:23;2.90;;;2.00;;
12603;SDS011;6367;52.508;13.284;2024-01-16T04:24:49;3.67;;;1.57;;
12603;SDS011;6367;52.508;13.284;2024-01-16T04:27:14;3.23;;;2.27;;
12603;SDS011;6367;52.508;13.284;2024-01-16T04:29:40;3.83;;;1.90;;
12603;SDS011;6367;52.508;13.284;2024-01-16T04:32:05;2.60;;;1.40;;
12603;SDS011;6367;52.508;13.284;2024-01-16T04:34:31;3.20;;;1.67;;
12603;SDS011;6367;52.508;13.284;2024-01-16T04:36:57;5.00;;;2.30;;
12603;SDS011;6367;52.508;13.284;2024-01-16T04:39:22;3.37;;;1.53;;
12603;SDS011;6367;52.508;13.284;2024-01-16T04:41:51;2.07;;;1.57;;
12603;SDS011;6367;52.508;13.284;2024-01-16T04:44:16;6.07;;;2.03;;
12603;SDS011;6367;52.508;13.284;2024-01-16T04:46:42;4.67;;;1.97;;
12603;SDS011;6367;52.508;13.284;2024-01-16T04:49:08;3.87;;;1.80;;
12603;SDS011;6367;52.508;13.284;2024-01-16T04:51:34;3.07;;;1.60;;
12603;SDS011;6367;52.508;13.284;2024-01-16T04:53:59;3.33;;;1.93;;
12603;SDS011;6367;52.508;13.284;2024-01-16T04:56:25;5.00;;;2.30;;
12603;SDS011;6367;52.508;13.284;2024-01-16T04:58:50;3.27;;;1.87;;
12603;SDS011;6367;52.508;13.284;2024-01-16T05:01:17;3.43;;;1.93;;
12603;SDS011;6367;52.508;13.284;2024-01-16T05:03:43;4.00;;;1.97;;
12603;SDS011;6367;52.508;13.284;2024-01-16T05:06:12;2.23;;;1.50;;
12603;SDS011;6367;52.508;13.284;2024-01-16T05:08:40;3.43;;;1.60;;
12603;SDS011;6367;52.508;13.284;2024-01-16T05:11:06;3.83;;;2.07;;
12603;SDS011;6367;52.508;13.284;2024-01-16T05:13:31;2.80;;;1.60;;
12603;SDS011;6367;52.508;13.284;2024-01-16T05:15:57;3.17;;;2.20;;
12603;SDS011;6367;52.508;13.284;2024-01-16T05:18:22;5.10;;;2.37;;
12603;SDS011;6367;52.508;13.284;2024-01-16T05:20:48;9.93;;;2.03;;
12603;SDS011;6367;52.508;13.284;2024-01-16T05:23:14;3.17;;;2.40;;
12603;SDS011;6367;52.508;13.284;2024-01-16T05:25:39;2.70;;;2.50;;
12603;SDS011;6367;52.508;13.284;2024-01-16T05:28:05;2.30;;;2.10;;
12603;SDS011;6367;52.508;13.284;2024-01-16T05:30:31;4.93;;;2.50;;
12603;SDS011;6367;52.508;13.284;2024-01-16T05:32:57;3.70;;;2.20;;
12603;SDS011;6367;52.508;13.284;2024-01-16T05:35:26;10.17;;;2.90;;
12603;SDS011;6367;52.508;13.284;2024-01-16T05:37:52;4.00;;;2.77;;
12603;SDS011;6367;52.508;13.284;2024-01-16T05:40:19;3.27;;;2.77;;
12603;SDS011;6367;52.508;13.284;2024-01-16T05:42:44;4.20;;;2.83;;
12603;SDS011;6367;52.508;13.284;2024-01-16T05:45:10;5.40;;;2.90;;
12603;SDS011;6367;52.508;13.284;2024-01-16T05:47:36;3.47;;;3.17;;
12603;SDS011;6367;52.508;13.284;2024-01-16T05:50:02;5.30;;;2.87;;
12603;SDS011;6367;52.508;13.284;2024-01-16T05:52:28;3.53;;;2.80;;
12603;SDS011;6367;52.508;13.284;2024-01-16T05:54:53;3.53;;;3.23;;
12603;SDS011;6367;52.508;13.284;2024-01-16T05:57:22;5.87;;;3.73;;
12603;SDS011;6367;52.508;13.284;2024-01-16T05:59:48;5.97;;;3.57;;
12603;SDS011;6367;52.508;13.284;2024-01-16T06:02:13;3.73;;;3.37;;
12603;SDS011;6367;52.508;13.284;2024-01-16T06:04:39;4.33;;;3.10;;
12603;SDS011;6367;52.508;13.284;2024-01-16T06:07:05;3.10;;;2.70;;
12603;SDS011;6367;52.508;13.284;2024-01-16T06:09:38;7.43;;;3.60;;
12603;SDS011;6367;52.508;13.284;2024-01-16T06:12:07;6.10;;;2.90;;
12603;SDS011;6367;52.508;13.284;2024-01-16T06:14:33;4.97;;;2.97;;
12603;SDS011;6367;52.508;13.284;2024-01-16T06:16:59;3.17;;;2.50;;
12603;SDS011;6367;52.508;13.284;2024-01-16T06:19:25;4.90;;;2.50;;
12603;SDS011;6367;52.508;13.284;2024-01-16T06:21:51;8.23;;;3.03;;
12603;SDS011;6367;52.508;13.284;2024-01-16T06:24:17;6.83;;;2.97;;
12603;SDS011;6367;52.508;13.284;2024-01-16T06:26:43;3.27;;;2.30;;
12603;SDS011;6367;52.508;13.284;2024-01-16T06:29:08;5.40;;;2.70;;
12603;SDS011;6367;52.508;13.284;2024-01-16T06:31:34;6.50;;;3.20;;
12603;SDS011;6367;52.508;13.284;2024-01-16T06:34:00;5.90;;;2.73;;
12603;SDS011;6367;52.508;13.284;2024-01-16T06:36:25;7.13;;;3.17;;
12603;SDS011;6367;52.508;13.284;2024-01-16T06:38:51;7.20;;;3.30;;
12603;SDS011;6367;52.508;13.284;2024-01-16T06:41:17;7.30;;;3.47;;
12603;SDS011;6367;52.508;13.284;2024-01-16T06:43:43;5.10;;;3.30;;
12603;SDS011;6367;52.508;13.284;2024-01-16T06:46:09;5.87;;;3.33;;
12603;SDS011;6367;52.508;13.284;2024-01-16T06:48:35;8.87;;;3.83;;
12603;SDS011;6367;52.508;13.284;2024-01-16T06:51:02;6.30;;;3.23;;
12603;SDS011;6367;52.508;13.284;2024-01-16T06:53:28;6.60;;;3.60;;
12603;SDS011;6367;52.508;13.284;2024-01-16T06:55:53;6.50;;;3.37;;
12603;SDS011;6367;52.508;13.284;2024-01-16T06:58:19;4.70;;;3.50;;
12603;SDS011;6367;52.508;13.284;2024-01-16T07:00:45;4.10;;;3.37;;
12603;SDS011;6367;52.508;13.284;2024-01-16T07:03:12;8.77;;;3.30;;
12603;SDS011;6367;52.508;13.284;2024-01-16T07:05:38;6.00;;;3.43;;
12603;SDS011;6367;52.508;13.284;2024-01-16T07:08:05;4.90;;;3.03;;
12603;SDS011;6367;52.508;13.284;2024-01-16T07:10:31;4.90;;;3.37;;
12603;SDS011;6367;52.508;13.284;2024-01-16T07:12:59;4.43;;;3.33;;
12603;SDS011;6367;52.508;13.284;2024-01-16T07:15:25;5.00;;;3.13;;
12603;SDS011;6367;52.508;13.284;2024-01-16T07:17:51;5.50;;;3.13;;
12603;SDS011;6367;52.508;13.284;2024-01-16T07:20:16;3.43;;;3.13;;
12603;SDS011;6367;52.508;13.284;2024-01-16T07:22:42;5.60;;;3.70;;
12603;SDS011;6367;52.508;13.284;2024-01-16T07:25:08;5.33;;;3.27;;
12603;SDS011;6367;52.508;13.284;2024-01-16T07:27:35;4.60;;;3.20;;
12603;SDS011;6367;52.508;13.284;2024-01-16T07:30:01;6.10;;;3.47;;
12603;SDS011;6367;52.508;13.284;2024-01-16T07:32:26;3.90;;;3.30;;
12603;SDS011;6367;52.508;13.284;2024-01-16T07:34:52;4.37;;;3.60;;
12603;SDS011;6367;52.508;13.284;2024-01-16T07:37:18;8.63;;;3.70;;
12603;SDS011;6367;52.508;13.284;2024-01-16T07:39:44;4.73;;;3.37;;
12603;SDS011;6367;52.508;13.284;2024-01-16T07:42:10;4.27;;;3.30;;
12603;SDS011;6367;52.508;13.284;2024-01-16T07:44:36;4.33;;;3.33;;
12603;SDS011;6367;52.508;13.284;2024-01-16T07:47:02;6.30;;;3.63;;
12603;SDS011;6367;52.508;13.284;2024-01-16T07:49:28;7.10;;;4.10;;
12603;SDS011;6367;52.508;13.284;2024-01-16T07:51:54;8.23;;;4.10;;
12603;SDS011;6367;52.508;13.284;2024-01-16T07:54:20;6.00;;;3.30;;
12603;SDS011;6367;52.508;13.284;2024-01-16T07:56:45;7.93;;;3.47;;
12603;SDS011;6367;52.508;13.284;2024-01-16T07:59:11;9.30;;;3.60;;
12603;SDS011;6367;52.508;13.284;2024-01-16T08:01:37;6.30;;;3.70;;
12603;SDS011;6367;52.508;13.284;2024-01-16T08:04:02;9.43;;;4.00;;
12603;SDS011;6367;52.508;13.284;2024-01-16T08:06:29;4.53;;;4.13;;
12603;SDS011;6367;52.508;13.284;2024-01-16T08:08:55;4.67;;;3.33;;
12603;SDS011;6367;52.508;13.284;2024-01-16T08:11:20;8.60;;;3.90;;
12603;SDS011;6367;52.508;13.284;2024-01-16T08:13:46;6.10;;;3.60;;
12603;SDS011;6367;52.508;13.284;2024-01-16T08:16:12;10.90;;;4.10;;
12603;SDS011;6367;52.508;13.284;2024-01-16T08:18:38;7.23;;;3.80;;
12603;SDS011;6367;52.508;13.284;2024-01-16T08:21:04;8.70;;;3.70;;
12603;SDS011;6367;52.508;13.284;2024-01-16T08:23:30;7.07;;;3.63;;
12603;SDS011;6367;52.508;13.284;2024-01-16T08:25:56;5.40;;;3.10;;
12603;SDS011;6367;52.508;13.284;2024-01-16T08:28:22;13.23;;;3.90;;
12603;SDS011;6367;52.508;13.284;2024-01-16T08:30:49;7.83;;;3.90;;
12603;SDS011;6367;52.508;13.284;2024-01-16T08:33:15;6.33;;;3.73;;
12603;SDS011;6367;52.508;13.284;2024-01-16T08:35:41;6.90;;;4.13;;
12603;SDS011;6367;52.508;13.284;2024-01-16T08:38:07;7.10;;;3.87;;
12603;SDS011;6367;52.508;13.284;2024-01-16T08:40:32;7.00;;;3.90;;
12603;SDS011;6367;52.508;13.284;2024-01-16T08:42:58;9.00;;;3.97;;
12603;SDS011;6367;52.508;13.284;2024-01-16T08:45:23;7.17;;;4.10;;
12603;SDS011;6367;52.508;13.284;2024-01-16T08:47:51;5.73;;;4.43;;
12603;SDS011;6367;52.508;13.284;2024-01-16T08:50:16;5.50;;;3.40;;
12603;SDS011;6367;52.508;13.284;2024-01-16T08:52:42;9.43;;;4.10;;
12603;SDS011;6367;52.508;13.284;2024-01-16T08:55:08;9.00;;;3.73;;
12603;SDS011;6367;52.508;13.284;2024-01-16T08:57:35;8.60;;;4.57;;
12603;SDS011;6367;52.508;13.284;2024-01-16T09:00:06;6.60;;;4.67;;
12603;SDS011;6367;52.508;13.284;2024-01-16T09:02:36;11.00;;;4.30;;
12603;SDS011;6367;52.508;13.284;2024-01-16T09:05:01;5.87;;;4.27;;
12603;SDS011;6367;52.508;13.284;2024-01-16T09:07:27;5.60;;;4.30;;
12603;SDS011;6367;52.508;13.284;2024-01-16T09:09:53;7.20;;;4.30;;
12603;SDS011;6367;52.508;13.284;2024-01-16T09:12:18;8.93;;;4.50;;
12603;SDS011;6367;52.508;13.284;2024-01-16T09:14:44;8.97;;;5.97;;
12603;SDS011;6367;52.508;13.284;2024-01-16T09:17:10;16.77;;;8.00;;
12603;SDS011;6367;52.508;13.284;2024-01-16T09:19:36;14.80;;;7.07;;
12603;SDS011;6367;52.508;13.284;2024-01-16T09:22:02;10.33;;;5.47;;
12603;SDS011;6367;52.508;13.284;2024-01-16T09:24:28;15.43;;;5.80;;
12603;SDS011;6367;52.508;13.284;2024-01-16T09:26:54;9.17;;;5.33;;
12603;SDS011;6367;52.508;13.284;2024-01-16T09:29:20;10.00;;;6.00;;
12603;SDS011;6367;52.508;13.284;2024-01-16T09:31:47;9.37;;;5.20;;
12603;SDS011;6367;52.508;13.284;2024-01-16T09:34:13;7.63;;;4.73;;
12603;SDS011;6367;52.508;13.284;2024-01-16T09:36:39;9.10;;;4.57;;
12603;SDS011;6367;52.508;13.284;2024-01-16T09:39:05;9.17;;;5.40;;
12603;SDS011;6367;52.508;13.284;2024-01-16T09:41:36;9.23;;;5.43;;
12603;SDS011;6367;52.508;13.284;2024-01-16T09:44:02;12.07;;;5.20;;
12603;SDS011;6367;52.508;13.284;2024-01-16T09:46:28;9.03;;;4.90;;
12603;SDS011;6367;52.508;13.284;2024-01-16T09:48:56;8.40;;;5.73;;
12603;SDS011;6367;52.508;13.284;2024-01-16T09:51:24;5.67;;;4.57;;
12603;SDS011;6367;52.508;13.284;2024-01-16T09:53:50;9.80;;;5.13;;
12603;SDS011;6367;52.508;13.284;2024-01-16T09:56:18;8.93;;;4.83;;
12603;SDS011;6367;52.508;13.284;2024-01-16T09:58:48;4.87;;;4.03;;
12603;SDS011;6367;52.508;13.284;2024-01-16T10:01:15;7.80;;;4.60;;
12603;SDS011;6367;52.508;13.284;2024-01-16T10:03:44;7.80;;;5.00;;
12603;SDS011;6367;52.508;13.284;2024-01-16T10:06:12;10.67;;;4.97;;
12603;SDS011;6367;52.508;13.284;2024-01-16T10:08:40;6.17;;;4.43;;
12603;SDS011;6367;52.508;13.284;2024-01-16T10:11:06;5.23;;;4.60;;
12603;SDS011;6367;52.508;13.284;2024-01-16T10:13:32;7.13;;;4.47;;
12603;SDS011;6367;52.508;13.284;2024-01-16T10:15:58;8.87;;;4.40;;
12603;SDS011;6367;52.508;13.284;2024-01-16T10:18:25;10.27;;;4.10;;
12603;SDS011;6367;52.508;13.284;2024-01-16T10:20:52;5.13;;;3.97;;
12603;SDS011;6367;52.508;13.284;2024-01-16T10:23:24;8.50;;;4.50;;
12603;SDS011;6367;52.508;13.284;2024-01-16T10:28:33;7.30;;;3.53;;
12603;SDS011;6367;52.508;13.284;2024-01-16T10:31:05;7.77;;;3.93;;
12603;SDS011;6367;52.508;13.284;2024-01-16T10:33:33;6.33;;;4.70;;
12603;SDS011;6367;52.508;13.284;2024-01-16T10:36:08;5.17;;;4.10;;
12603;SDS011;6367;52.508;13.284;2024-01-16T10:38:39;6.40;;;3.90;;
12603;SDS011;6367;52.508;13.284;2024-01-16T10:43:33;8.00;;;3.40;;
12603;SDS011;6367;52.508;13.284;2024-01-16T10:46:12;5.60;;;2.93;;
12603;SDS011;6367;52.508;13.284;2024-01-16T10:48:42;3.03;;;2.73;;
12603;SDS011;6367;52.508;13.284;2024-01-16T10:51:24;3.20;;;2.70;;
12603;SDS011;6367;52.508;13.284;2024-01-16T10:53:52;7.67;;;3.03;;
12603;SDS011;6367;52.508;13.284;2024-01-16T10:56:36;5.67;;;2.60;;
12603;SDS011;6367;52.508;13.284;2024-01-16T11:01:37;4.97;;;2.47;;
12603;SDS011;6367;52.508;13.284;2024-01-16T11:04:06;4.13;;;2.57;;
12603;SDS011;6367;52.508;13.284;2024-01-16T11:06:33;3.00;;;1.90;;
12603;SDS011;6367;52.508;13.284;2024-01-16T11:08:59;6.30;;;2.23;;
12603;SDS011;6367;52.508;13.284;2024-01-16T11:11:25;5.77;;;2.80;;
12603;SDS011;6367;52.508;13.284;2024-01-16T11:13:53;5.77;;;2.43;;
12603;SDS011;6367;52.508;13.284;2024-01-16T11:16:20;7.80;;;2.27;;
12603;SDS011;6367;52.508;13.284;2024-01-16T11:18:47;4.33;;;2.67;;
12603;SDS011;6367;52.508;13.284;2024-01-16T11:21:13;4.57;;;2.67;;
12603;SDS011;6367;52.508;13.284;2024-01-16T11:23:40;8.63;;;2.63;;
12603;SDS011;6367;52.508;13.284;2024-01-16T11:28:56;3.13;;;2.30;;
12603;SDS011;6367;52.508;13.284;2024-01-16T11:31:31;9.10;;;2.60;;
12603;SDS011;6367;52.508;13.284;2024-01-16T11:33:58;5.07;;;2.40;;
12603;SDS011;6367;52.508;13.284;2024-01-16T11:36:45;6.23;;;2.60;;
12603;SDS011;6367;52.508;13.284;2024-01-16T11:39:19;4.50;;;2.70;;
12603;SDS011;6367;52.508;13.284;2024-01-16T11:41:56;3.43;;;3.13;;
12603;SDS011;6367;52.508;13.284;2024-01-16T11:44:42;5.43;;;2.77;;
12603;SDS011;6367;52.508;13.284;2024-01-16T11:47:08;6.50;;;3.57;;
12603;SDS011;6367;52.508;13.284;2024-01-16T11:49:40;9.23;;;4.27;;
12603;SDS011;6367;52.508;13.284;2024-01-16T11:52:06;7.47;;;3.73;;
12603;SDS011;6367;52.508;13.284;2024-01-16T11:54:32;7.73;;;3.77;;
12603;SDS011;6367;52.508;13.284;2024-01-16T11:59:59;7.53;;;4.23;;
12603;SDS011;6367;52.508;13.284;2024-01-16T12:03:08;6.43;;;4.00;;
12603;SDS011;6367;52.508;13.284;2024-01-16T12:05:19;6.80;;;4.40;;
12603;SDS011;6367;52.508;13.284;2024-01-16T12:07:51;9.03;;;4.70;;
12603;SDS011;6367;52.508;13.284;2024-01-16T12:10:22;8.90;;;3.97;;
12603;SDS011;6367;52.508;13.284;2024-01-16T12:12:49;5.60;;;4.40;;
12603;SDS011;6367;52.508;13.284;2024-01-16T12:15:19;9.97;;;4.53;;
12603;SDS011;6367;52.508;13.284;2024-01-16T12:18:01;6.60;;;4.70;;
12603;SDS011;6367;52.508;13.284;2024-01-16T12:20:31;8.03;;;4.97;;
12603;SDS011;6367;52.508;13.284;2024-01-16T12:22:58;9.10;;;3.90;;
12603;SDS011;6367;52.508;13.284;2024-01-16T12:25:26;6.53;;;4.27;;
12603;SDS011;6367;52.508;13.284;2024-01-16T12:27:59;5.30;;;3.80;;
12603;SDS011;6367;52.508;13.284;2024-01-16T12:30:32;9.73;;;4.47;;
12603;SDS011;6367;52.508;13.284;2024-01-16T12:33:08;6.90;;;3.40;;
12603;SDS011;6367;52.508;13.284;2024-01-16T12:35:36;6.07;;;3.77;;
12603;SDS011;6367;52.508;13.284;2024-01-16T12:38:03;4.33;;;3.30;;
12603;SDS011;6367;52.508;13.284;2024-01-16T12:40:31;7.20;;;3.70;;
12603;SDS011;6367;52.508;13.284;2024-01-16T12:42:58;8.53;;;3.53;;
12603;SDS011;6367;52.508;13.284;2024-01-16T12:45:24;7.63;;;3.47;;
12603;SDS011;6367;52.508;13.284;2024-01-16T12:47:53;5.33;;;3.53;;
12603;SDS011;6367;52.508;13.284;2024-01-16T12:50:23;11.03;;;3.63;;
12603;SDS011;6367;52.508;13.284;2024-01-16T12:52:59;4.30;;;3.43;;
12603;SDS011;6367;52.508;13.284;2024-01-16T12:55:29;4.90;;;3.10;;
12603;SDS011;6367;52.508;13.284;2024-01-16T12:58:18;8.67;;;3.07;;
12603;SDS011;6367;52.508;13.284;2024-01-16T13:00:47;15.13;;;4.20;;
12603;SDS011;6367;52.508;13.284;2024-01-16T13:03:25;8.00;;;4.00;;
12603;SDS011;6367;52.508;13.284;2024-01-16T13:05:58;6.70;;;3.20;;
12603;SDS011;6367;52.508;13.284;2024-01-16T13:08:25;5.47;;;2.90;;
12603;SDS011;6367;52.508;13.284;2024-01-16T13:11:04;8.37;;;3.40;;
12603;SDS011;6367;52.508;13.284;2024-01-16T13:13:30;4.67;;;2.70;;
12603;SDS011;6367;52.508;13.284;2024-01-16T13:15:57;10.07;;;4.47;;
12603;SDS011;6367;52.508;13.284;2024-01-16T13:18:24;10.53;;;4.10;;
12603;SDS011;6367;52.508;13.284;2024-01-16T13:20:52;6.23;;;3.53;;
12603;SDS011;6367;52.508;13.284;2024-01-16T13:23:19;11.00;;;3.17;;
12603;SDS011;6367;52.508;13.284;2024-01-16T13:25:46;7.03;;;3.40;;
12603;SDS011;6367;52.508;13.284;2024-01-16T13:28:14;10.03;;;3.20;;
12603;SDS011;6367;52.508;13.284;2024-01-16T13:30:40;7.83;;;3.10;;
12603;SDS011;6367;52.508;13.284;2024-01-16T13:33:07;7.40;;;3.00;;
12603;SDS011;6367;52.508;13.284;2024-01-16T13:35:39;9.10;;;3.30;;
12603;SDS011;6367;52.508;13.284;2024-01-16T13:38:07;6.13;;;3.13;;
12603;SDS011;6367;52.508;13.284;2024-01-16T13:40:33;4.20;;;2.97;;
12603;SDS011;6367;52.508;13.284;2024-01-16T13:43:05;9.10;;;3.47;;
12603;SDS011;6367;52.508;13.284;2024-01-16T13:45:34;10.03;;;3.17;;
12603;SDS011;6367;52.508;13.284;2024-01-16T13:48:01;11.17;;;3.07;;
12603;SDS011;6367;52.508;13.284;2024-01-16T13:50:27;6.30;;;3.13;;
12603;SDS011;6367;52.508;13.284;2024-01-16T13:52:53;6.47;;;3.03;;
12603;SDS011;6367;52.508;13.284;2024-01-16T13:55:19;14.00;;;3.40;;
12603;SDS011;6367;52.508;13.284;2024-01-16T13:57:45;8.50;;;3.47;;
12603;SDS011;6367;52.508;13.284;2024-01-16T14:00:11;4.40;;;3.00;;
12603;SDS011;6367;52.508;13.284;2024-01-16T14:02:39;5.30;;;3.00;;
12603;SDS011;6367;52.508;13.284;2024-01-16T14:05:07;7.60;;;3.43;;
12603;SDS011;6367;52.508;13.284;2024-01-16T14:07:35;3.20;;;2.80;;
12603;SDS011;6367;52.508;13.284;2024-01-16T14:10:03;9.43;;;3.10;;
12603;SDS011;6367;52.508;13.284;2024-01-16T14:12:38;10.30;;;3.03;;
12603;SDS011;6367;52.508;13.284;2024-01-16T14:15:07;4.80;;;2.63;;
12603;SDS011;6367;52.508;13.284;2024-01-16T14:17:44;6.47;;;3.10;;
12603;SDS011;6367;52.508;13.284;2024-01-16T14:20:11;9.27;;;3.60;;
12603;SDS011;6367;52.508;13.284;2024-01-16T14:22:38;8.90;;;2.87;;
12603;SDS011;6367;52.508;13.284;2024-01-16T14:25:05;6.50;;;3.23;;
12603;SDS011;6367;52.508;13.284;2024-01-16T14:27:44;6.77;;;3.03;;
12603;SDS011;6367;52.508;13.284;2024-01-16T14:30:34;9.70;;;3.43;;
12603;SDS011;6367;52.508;13.284;2024-01-16T14:33:00;5.73;;;3.10;;
12603;SDS011;6367;52.508;13.284;2024-01-16T14:35:26;11.43;;;3.70;;
12603;SDS011;6367;52.508;13.284;2024-01-16T14:37:52;4.53;;;2.67;;
12603;SDS011;6367;52.508;13.284;2024-01-16T14:40:18;9.27;;;3.37;;
12603;SDS011;6367;52.508;13.284;2024-01-16T14:42:50;5.20;;;2.90;;
12603;SDS011;6367;52.508;13.284;2024-01-16T14:45:19;7.10;;;3.77;;
12603;SDS011;6367;52.508;13.284;2024-01-16T14:47:49;4.03;;;3.10;;
12603;SDS011;6367;52.508;13.284;2024-01-16T14:50:15;6.83;;;3.03;;
12603;SDS011;6367;52.508;13.284;2024-01-16T14:52:42;5.70;;;2.80;;
12603;SDS011;6367;52.508;13.284;2024-01-16T14:55:09;5.73;;;2.83;;
12603;SDS011;6367;52.508;13.284;2024-01-16T14:57:36;6.30;;;3.80;;
12603;SDS011;6367;52.508;13.284;2024-01-16T15:00:08;6.80;;;3.23;;
12603;SDS011;6367;52.508;13.284;2024-01-16T15:02:54;7.40;;;3.85;;
12603;SDS011;6367;52.508;13.284;2024-01-16T15:05:20;9.23;;;3.77;;